Time;durP1;ratioP1;P1;durP2;ratioP2;P2;SDS_P1;SDS_P2;PMS_P1;PMS_P2;Temp;Humidity;BMP_temperature;BMP_pressure;BME280_temperature;BME280_humidity;BME280_pressure;Samples;Min_cycle;Max_cycle;Signal;HPM_P1;HPM_P2
2021/11/09 00:02:01;;;;;;;13.68;4.90;;;9.00;84.40;;;;;;5114727;28;20360;-76
2021/11/09 00:04:34;;;;;;;15.40;5.68;;;9.00;84.40;;;;;;5114933;28;20103;-76
2021/11/09 00:07:11;;;;;;;14.07;5.13;;;8.90;84.40;;;;;;5114825;28;20383;-76
2021/11/09 00:12:22;;;;;;;19.25;5.80;;;8.90;84.50;;;;;;5115113;28;20541;-76
2021/11/09 00:14:48;;;;;;;11.73;5.40;;;8.90;84.50;;;;;;5114629;28;20027;-76
2021/11/09 00:20:38;;;;;;;14.07;5.75;;;8.80;84.40;;;;;;5114879;28;20073;-76
2021/11/09 00:23:03;;;;;;;10.93;5.30;;;8.70;84.40;;;;;;5096299;28;20047;-76
2021/11/09 00:25:29;;;;;;;16.90;5.57;;;8.70;84.60;;;;;;5095883;28;20088;-76
2021/11/09 00:27:55;;;;;;;13.60;5.63;;;8.60;84.60;;;;;;5095948;28;20020;-76
2021/11/09 00:30:23;;;;;;;13.40;5.47;;;8.60;84.70;;;;;;5096133;28;20115;-76
2021/11/09 00:32:49;;;;;;;15.63;5.47;;;8.60;84.70;;;;;;5096158;28;20020;-76
2021/11/09 00:36:01;;;;;;;14.02;5.60;;;8.60;84.80;;;;;;5114048;28;20034;-76
2021/11/09 00:38:27;;;;;;;11.70;4.90;;;8.50;84.70;;;;;;5114329;28;20034;-76
2021/11/09 00:41:30;;;;;;;9.57;4.95;;;8.50;84.80;;;;;;5114285;28;20027;-76
2021/11/09 00:43:55;;;;;;;13.88;5.43;;;8.50;84.80;;;;;;5095024;28;20054;-76
2021/11/09 00:46:22;;;;;;;11.23;5.10;;;8.50;84.80;;;;;;5114040;28;20087;-76
2021/11/09 00:48:48;;;;;;;12.60;5.45;;;8.40;84.80;;;;;;5114062;28;20019;-76
2021/11/09 00:51:14;;;;;;;10.57;5.35;;;8.50;84.90;;;;;;5095838;28;20550;-76
2021/11/09 00:53:40;;;;;;;13.30;5.38;;;8.50;84.90;;;;;;5095764;28;20408;-76
2021/11/09 00:56:50;;;;;;;11.55;5.57;;;8.40;84.70;;;;;;5113999;28;20061;-76
2021/11/09 01:02:39;;;;;;;10.43;5.35;;;8.30;84.70;;;;;;5113982;28;20609;-76
2021/11/09 01:05:05;;;;;;;14.45;5.30;;;8.30;84.80;;;;;;5095655;28;20023;-76
2021/11/09 01:10:54;;;;;;;11.77;5.25;;;8.20;84.80;;;;;;5113696;28;20391;-76
2021/11/09 01:13:24;;;;;;;11.25;4.90;;;8.20;84.80;;;;;;5113735;28;20034;-76
2021/11/09 01:15:52;;;;;;;9.60;5.25;;;8.20;84.80;;;;;;5095340;28;20110;-76
2021/11/09 01:18:26;;;;;;;13.55;5.10;;;8.20;84.90;;;;;;5113941;28;20023;-76
2021/11/09 01:24:17;;;;;;;11.13;4.85;;;8.20;84.90;;;;;;5113682;28;20035;-76
2021/11/09 01:26:45;;;;;;;14.35;5.53;;;8.20;85.50;;;;;;5095128;28;20043;-76
2021/11/09 01:29:12;;;;;;;9.63;4.82;;;8.20;84.80;;;;;;5113493;28;20012;-76
2021/11/09 01:31:38;;;;;;;13.65;5.30;;;8.20;84.80;;;;;;5113730;28;20016;-76
2021/11/09 01:34:04;;;;;;;16.48;5.60;;;8.20;84.80;;;;;;5095123;28;20026;-76
2021/11/09 01:36:31;;;;;;;13.45;5.82;;;8.20;84.80;;;;;;5113443;28;20027;-76
2021/11/09 01:38:57;;;;;;;9.85;4.80;;;8.20;84.80;;;;;;5095153;28;20022;-76
2021/11/09 01:41:23;;;;;;;12.23;5.30;;;8.20;84.80;;;;;;5095103;28;20020;-76
2021/11/09 01:43:50;;;;;;;12.63;5.57;;;8.20;84.80;;;;;;5094995;28;20399;-76
2021/11/09 01:46:16;;;;;;;11.82;5.22;;;8.20;84.80;;;;;;5113188;28;20027;-76
2021/11/09 01:48:43;;;;;;;11.07;5.68;;;8.20;84.80;;;;;;5095031;28;20020;-75
2021/11/09 01:51:11;;;;;;;13.15;5.53;;;8.20;84.90;;;;;;5095365;28;20106;-74
2021/11/09 01:53:39;;;;;;;13.13;6.10;;;8.20;84.90;;;;;;5113334;28;20020;-76
2021/11/09 01:56:08;;;;;;;11.27;5.07;;;8.10;84.90;;;;;;5098957;28;20080;-76
2021/11/09 01:58:35;;;;;;;13.25;5.60;;;8.10;84.90;;;;;;5099006;28;20051;-73
2021/11/09 02:01:05;;;;;;;12.68;5.93;;;8.10;85.10;;;;;;5111376;28;20395;-75
2021/11/09 02:06:53;;;;;;;13.13;5.15;;;8.10;84.80;;;;;;5117627;28;20391;-74
2021/11/09 02:09:20;;;;;;;13.23;5.82;;;8.00;84.70;;;;;;5117268;28;20020;-74
2021/11/09 02:15:09;;;;;;;12.20;5.40;;;8.00;84.70;;;;;;5117443;28;20035;-75
2021/11/09 02:17:40;;;;;;;14.13;5.30;;;8.00;84.80;;;;;;5098777;28;20073;-75
2021/11/09 02:20:08;;;;;;;12.18;5.63;;;7.90;84.70;;;;;;5098657;28;20015;-75
2021/11/09 02:22:34;;;;;;;12.43;5.35;;;7.90;84.70;;;;;;5098473;28;20020;-75
2021/11/09 02:25:03;;;;;;;11.70;5.55;;;7.90;84.70;;;;;;5095372;28;20040;-76
2021/11/09 02:27:29;;;;;;;11.60;5.63;;;7.80;84.70;;;;;;5116737;28;20059;-75
2021/11/09 02:33:17;;;;;;;12.32;5.22;;;7.80;84.70;;;;;;5074270;28;20036;-75
2021/11/09 02:35:43;;;;;;;14.05;5.82;;;7.80;84.70;;;;;;5057038;28;20021;-75
2021/11/09 02:38:09;;;;;;;13.60;5.78;;;7.80;84.70;;;;;;5073809;28;20033;-75
2021/11/09 02:40:35;;;;;;;11.80;6.28;;;7.80;84.80;;;;;;5056924;28;20035;-75
2021/11/09 02:43:06;;;;;;;12.82;5.57;;;7.70;84.70;;;;;;5054218;28;20124;-75
2021/11/09 02:49:50;;;;;;;11.05;5.50;;;7.70;84.80;;;;;;5074034;28;20026;-75
2021/11/09 02:54:26;;;;;;;11.77;5.60;;;7.60;84.80;;;;;;5073570;28;20032;-76
2021/11/09 02:57:04;;;;;;;11.85;5.50;;;7.60;84.80;;;;;;5056591;28;20052;-75
2021/11/09 03:05:42;;;;;;;14.57;5.10;;;7.60;84.80;;;;;;5116085;28;20482;-75
2021/11/09 03:11:17;;;;;;;17.08;6.63;;;7.50;84.80;;;;;;5053788;28;20490;-75
2021/11/09 03:13:44;;;;;;;16.20;6.10;;;7.50;84.80;;;;;;5112477;28;20035;-75
2021/11/09 03:16:12;;;;;;;11.98;5.72;;;7.50;84.90;;;;;;5097715;28;20016;-75
2021/11/09 03:18:44;;;;;;;12.45;6.13;;;7.50;85.00;;;;;;5097384;28;20020;-75
2021/11/09 03:40:48;;;;;;;11.70;5.35;;;7.40;85.10;;;;;;5115736;28;20594;-75
2021/11/09 03:45:58;;;;;;;14.48;6.00;;;7.30;85.00;;;;;;5115414;28;20042;-75
2021/11/09 03:48:24;;;;;;;12.52;5.63;;;7.30;85.10;;;;;;5097071;28;20020;-75
2021/11/09 03:54:15;;;;;;;12.27;6.15;;;7.20;85.20;;;;;;5115516;28;20027;-75
2021/11/09 03:56:49;;;;;;;12.27;5.78;;;7.20;85.20;;;;;;5115238;28;20117;-75
2021/11/09 03:59:20;;;;;;;13.82;6.20;;;7.20;85.20;;;;;;5096726;28;20057;-75
2021/11/09 04:07:01;;;;;;;12.65;6.20;;;7.20;85.30;;;;;;5115182;28;20024;-75
2021/11/09 04:09:35;;;;;;;13.15;6.25;;;7.20;85.20;;;;;;5096455;28;20477;-75
2021/11/09 04:12:18;;;;;;;14.75;6.00;;;7.20;85.30;;;;;;5111527;28;20539;-75
2021/11/09 04:14:53;;;;;;;10.40;5.80;;;7.10;85.30;;;;;;5096798;28;20089;-76
2021/11/09 04:18:06;;;;;;;11.35;5.47;;;7.10;85.20;;;;;;5114929;28;20396;-75
2021/11/09 04:28:19;;;;;;;12.63;5.85;;;7.00;85.20;;;;;;5114749;28;20078;-75
2021/11/09 04:34:43;;;;;;;13.88;6.18;;;7.00;85.30;;;;;;5114788;28;20038;-75
2021/11/09 04:41:06;;;;;;;13.75;6.20;;;6.90;85.20;;;;;;5071818;28;20396;-75
2021/11/09 05:09:40;;;;;;;9.55;5.60;;;6.70;85.40;;;;;;5113983;28;20050;-75
2021/11/09 05:12:07;;;;;;;11.75;6.28;;;6.70;85.40;;;;;;5095490;28;20118;-75
2021/11/09 05:14:32;;;;;;;10.65;5.82;;;6.60;85.30;;;;;;5095321;28;20019;-75
2021/11/09 05:17:01;;;;;;;14.63;6.65;;;6.60;85.40;;;;;;5095682;28;20015;-75
2021/11/09 05:19:27;;;;;;;14.60;6.78;;;6.60;85.40;;;;;;5095421;28;20081;-75
2021/11/09 05:21:53;;;;;;;13.23;6.40;;;6.70;85.50;;;;;;5113539;28;20102;-75
2021/11/09 05:24:20;;;;;;;10.80;6.68;;;6.70;85.50;;;;;;5095282;28;20023;-75
2021/11/09 05:26:47;;;;;;;15.88;6.85;;;6.70;85.40;;;;;;5092370;28;20475;-75
2021/11/09 05:29:53;;;;;;;13.65;6.28;;;6.70;85.40;;;;;;5094818;28;20108;-75
2021/11/09 05:32:19;;;;;;;13.60;6.85;;;6.70;85.50;;;;;;5094991;28;20031;-74
2021/11/09 05:34:48;;;;;;;13.70;7.07;;;6.60;85.40;;;;;;5092275;28;20034;-75
2021/11/09 05:37:18;;;;;;;14.30;6.88;;;6.60;85.40;;;;;;5095188;28;20028;-75
2021/11/09 05:39:53;;;;;;;14.98;7.18;;;6.60;85.40;;;;;;5110066;28;20036;-75
2021/11/09 05:42:20;;;;;;;13.90;6.70;;;6.60;85.40;;;;;;5095132;28;20027;-75
2021/11/09 05:44:46;;;;;;;15.30;7.28;;;6.60;85.50;;;;;;5095109;28;20445;-75
2021/11/09 05:47:12;;;;;;;12.95;7.07;;;6.60;85.50;;;;;;5095092;28;20032;-75
2021/11/09 05:49:39;;;;;;;13.32;7.10;;;6.60;85.50;;;;;;5092174;28;20015;-75
2021/11/09 05:52:05;;;;;;;14.75;6.80;;;6.60;85.60;;;;;;5113281;28;20051;-75
2021/11/09 05:54:30;;;;;;;19.17;7.28;;;6.60;85.50;;;;;;5095091;28;20055;-75
2021/11/09 05:56:56;;;;;;;13.88;6.90;;;6.60;85.50;;;;;;5095024;28;20016;-75
2021/11/09 05:59:22;;;;;;;18.08;7.40;;;6.60;85.50;;;;;;5095035;28;20026;-75
2021/11/09 06:05:10;;;;;;;15.40;6.75;;;6.60;85.50;;;;;;5113546;28;20548;-75
2021/11/09 06:07:36;;;;;;;19.20;6.80;;;6.50;85.40;;;;;;5092114;28;20024;-75
2021/11/09 06:10:33;;;;;;;14.02;7.00;;;6.50;85.50;;;;;;5094978;28;20084;-75
2021/11/09 06:12:59;;;;;;;14.43;7.00;;;6.50;85.50;;;;;;5094807;28;20023;-75
2021/11/09 06:15:24;;;;;;;13.20;7.35;;;6.50;85.40;;;;;;5094854;28;20487;-75
2021/11/09 06:17:50;;;;;;;13.48;7.53;;;6.50;85.50;;;;;;5094856;28;20028;-75
2021/11/09 06:20:16;;;;;;;14.52;7.40;;;6.40;85.50;;;;;;5094677;28;20030;-75
2021/11/09 06:22:42;;;;;;;17.77;7.28;;;6.40;85.50;;;;;;5094796;28;20104;-75
2021/11/09 06:25:11;;;;;;;13.27;7.40;;;6.50;85.60;;;;;;5112890;28;20030;-75
2021/11/09 06:27:36;;;;;;;14.70;7.18;;;6.40;85.50;;;;;;5094492;28;20093;-76
2021/11/09 06:30:04;;;;;;;19.98;8.40;;;6.40;85.50;;;;;;5094823;28;20019;-75
2021/11/09 06:32:29;;;;;;;12.95;7.18;;;6.40;86.10;;;;;;5094661;28;20020;-75
2021/11/09 06:34:55;;;;;;;15.73;7.63;;;6.40;85.50;;;;;;5112856;28;20024;-75
2021/11/09 06:40:43;;;;;;;14.23;7.15;;;6.40;85.60;;;;;;5113025;28;20030;-75
2021/11/09 06:43:09;;;;;;;12.80;7.18;;;6.40;85.50;;;;;;5098774;28;20028;-75
2021/11/09 06:45:35;;;;;;;22.15;8.50;;;6.40;85.50;;;;;;5099123;28;20356;-75
2021/11/09 06:48:02;;;;;;;14.60;7.47;;;6.40;85.60;;;;;;5117161;28;20023;-75
2021/11/09 06:50:28;;;;;;;15.35;8.15;;;6.30;85.50;;;;;;5099335;28;20046;-75
2021/11/09 06:52:54;;;;;;;14.02;7.47;;;6.30;85.60;;;;;;5095615;28;20550;-74
2021/11/09 06:55:19;;;;;;;16.92;7.70;;;6.30;85.60;;;;;;5117125;28;20020;-75
2021/11/09 06:57:46;;;;;;;18.02;7.88;;;6.30;85.60;;;;;;5098664;28;20472;-76
2021/11/09 07:00:16;;;;;;;15.15;7.95;;;6.30;85.60;;;;;;5117396;28;20110;-75
2021/11/09 07:02:44;;;;;;;17.25;7.75;;;6.30;85.60;;;;;;5098603;28;20027;-75
2021/11/09 07:08:33;;;;;;;20.50;8.20;;;6.30;85.70;;;;;;5117460;28;20067;-75
2021/11/09 07:10:59;;;;;;;15.55;7.75;;;6.30;85.60;;;;;;5098954;28;20016;-75
2021/11/09 07:13:25;;;;;;;14.90;7.40;;;6.30;85.60;;;;;;5117555;28;20031;-75
2021/11/09 07:15:51;;;;;;;17.25;7.68;;;6.30;85.60;;;;;;5098477;28;20031;-75
2021/11/09 07:18:17;;;;;;;14.93;7.63;;;6.30;85.60;;;;;;5117077;28;20437;-74
2021/11/09 07:20:43;;;;;;;14.98;7.95;;;6.30;85.60;;;;;;5098120;28;20100;-75
2021/11/09 07:23:08;;;;;;;16.02;7.95;;;6.30;85.60;;;;;;5098189;28;20024;-74
2021/11/09 07:25:34;;;;;;;18.35;7.45;;;6.40;85.70;;;;;;5097434;28;20024;-75
2021/11/09 07:28:00;;;;;;;13.23;7.80;;;6.40;85.60;;;;;;5097477;28;20020;-75
2021/11/09 07:30:30;;;;;;;18.42;8.68;;;6.40;85.50;;;;;;5115873;28;20442;-75
2021/11/09 07:32:56;;;;;;;21.33;8.45;;;6.40;85.50;;;;;;5097252;28;20023;-74
2021/11/09 07:38:44;;;;;;;17.80;8.38;;;6.50;85.50;;;;;;5115955;28;20030;-74
2021/11/09 07:41:10;;;;;;;16.33;8.02;;;6.60;85.50;;;;;;5097118;28;20054;-75
2021/11/09 07:43:36;;;;;;;16.25;7.80;;;6.60;85.40;;;;;;5115444;28;20456;-75
2021/11/09 07:46:03;;;;;;;18.33;8.10;;;6.70;85.40;;;;;;5115358;28;20035;-74
2021/11/09 07:48:29;;;;;;;19.77;8.90;;;6.70;85.40;;;;;;5096743;28;20012;-75
2021/11/09 07:50:55;;;;;;;18.60;8.27;;;6.80;85.40;;;;;;5094159;28;20051;-75
2021/11/09 07:53:22;;;;;;;18.70;7.68;;;6.80;85.40;;;;;;5096734;28;20034;-75
2021/11/09 07:55:59;;;;;;;18.25;8.43;;;6.90;85.50;;;;;;5115207;28;20027;-76
2021/11/09 07:58:40;;;;;;;21.23;8.02;;;7.00;85.50;;;;;;5115242;28;20031;-76
2021/11/09 08:01:13;;;;;;;19.20;8.20;;;7.10;85.50;;;;;;5115330;28;20471;-76
2021/11/09 08:06:28;;;;;;;19.67;8.10;;;7.20;85.40;;;;;;5115309;28;20109;-76
2021/11/09 08:09:01;;;;;;;19.08;8.02;;;7.20;85.30;;;;;;5094216;28;20031;-75
2021/11/09 08:11:27;;;;;;;23.48;8.73;;;7.30;85.30;;;;;;5114966;28;20016;-76
2021/11/09 08:13:53;;;;;;;16.33;7.50;;;7.30;85.20;;;;;;5096492;28;20027;-76
2021/11/09 08:16:19;;;;;;;18.15;8.05;;;7.40;85.20;;;;;;5111786;28;20395;-76
2021/11/09 08:18:45;;;;;;;17.67;7.35;;;7.40;85.20;;;;;;5096532;28;20028;-75
2021/11/09 08:21:13;;;;;;;17.98;7.15;;;7.50;85.20;;;;;;5096666;28;20141;-77
2021/11/09 08:27:04;;;;;;;16.92;6.53;;;7.60;85.20;;;;;;5114761;28;20078;-78
2021/11/09 08:29:30;;;;;;;13.60;6.20;;;7.60;85.10;;;;;;5114788;28;20387;-78
2021/11/09 08:31:58;;;;;;;19.52;6.55;;;7.70;85.10;;;;;;5114622;28;20069;-78
2021/11/09 08:34:27;;;;;;;15.27;7.18;;;7.70;85.00;;;;;;5096324;28;20051;-78
2021/11/09 08:36:53;;;;;;;16.63;6.95;;;7.80;85.00;;;;;;5114421;28;20099;-79
2021/11/09 08:39:26;;;;;;;12.27;6.15;;;7.80;84.90;;;;;;5096346;28;20047;-78
2021/11/09 08:44:21;;;;;;;14.68;6.53;;;7.90;85.00;;;;;;5111827;28;20028;-78
2021/11/09 08:46:56;;;;;;;17.25;6.78;;;8.00;84.90;;;;;;5096329;28;20027;-79
2021/11/09 08:49:25;;;;;;;16.92;6.50;;;8.00;84.90;;;;;;5095963;28;20058;-77
2021/11/09 08:51:54;;;;;;;15.23;6.43;;;8.10;84.90;;;;;;5095998;28;20048;-78
2021/11/09 09:05:53;;;;;;;;;;;8.40;84.60;;;;;;5114672;28;20034;-77
2021/11/09 09:09:02;;;;;;;17.20;5.93;;;8.40;84.50;;;;;;5114082;28;19904;-76
2021/11/09 09:11:30;;;;;;;14.48;6.15;;;8.50;84.50;;;;;;5096771;28;20395;-77
2021/11/09 09:13:55;;;;;;;16.77;7.22;;;8.50;84.40;;;;;;5114321;28;20065;-76
2021/11/09 09:16:21;;;;;;;18.90;6.95;;;8.50;84.40;;;;;;5113526;28;20023;-75
2021/11/09 09:18:48;;;;;;;15.15;6.32;;;8.60;84.40;;;;;;5095514;28;20024;-76
2021/11/09 09:21:23;;;;;;;17.45;6.70;;;8.60;84.30;;;;;;5095558;28;20471;-76
2021/11/09 09:23:52;;;;;;;19.40;7.57;;;8.70;84.30;;;;;;5096145;28;20027;-76
2021/11/09 09:30:38;;;;;;;17.13;6.93;;;8.80;84.10;;;;;;5031690;28;20037;-76
2021/11/09 09:52:21;;;;;;;19.73;6.07;;;9.30;83.40;;;;;;5093507;28;20561;-75
2021/11/09 09:57:14;;;;;;;17.50;6.35;;;9.40;83.30;;;;;;5093693;28;20039;-75
2021/11/09 09:59:43;;;;;;;18.73;6.10;;;9.40;83.10;;;;;;5075104;28;20028;-75
2021/11/09 10:02:09;;;;;;;17.65;6.57;;;9.60;83.10;;;;;;5091660;28;20032;-75
2021/11/09 10:05:00;;;;;;;15.18;6.07;;;9.60;83.00;;;;;;5093033;28;20146;-75
2021/11/09 10:07:43;;;;;;;19.10;6.30;;;9.60;82.80;;;;;;5074427;28;20114;-75
2021/11/09 10:10:09;;;;;;;14.00;6.65;;;9.70;82.70;;;;;;5092951;28;20043;-76
2021/11/09 10:12:36;;;;;;;12.43;5.30;;;9.80;82.60;;;;;;5074744;28;20395;-75
2021/11/09 10:15:05;;;;;;;14.38;6.13;;;9.80;83.10;;;;;;5093386;28;20032;-75
2021/11/09 10:17:31;;;;;;;14.93;5.55;;;9.90;82.40;;;;;;5093762;28;20036;-76
2021/11/09 10:19:59;;;;;;;15.38;6.32;;;9.90;82.20;;;;;;5096836;28;20035;-75
2021/11/09 10:22:31;;;;;;;12.70;5.65;;;10.00;82.20;;;;;;5096636;28;20036;-75
2021/11/09 10:25:06;;;;;;;12.13;6.00;;;10.00;82.00;;;;;;5095497;28;20428;-75
2021/11/09 10:27:33;;;;;;;16.73;5.70;;;10.10;82.00;;;;;;5099225;28;20032;-75
2021/11/09 10:30:03;;;;;;;13.73;6.15;;;10.10;81.90;;;;;;5098692;28;20020;-75
2021/11/09 10:32:30;;;;;;;16.45;5.65;;;10.20;81.80;;;;;;5098859;28;20027;-77
2021/11/09 10:35:03;;;;;;;13.50;5.57;;;10.20;81.70;;;;;;5098690;28;20027;-75
2021/11/09 10:37:31;;;;;;;12.97;6.20;;;10.30;81.50;;;;;;5098467;28;20391;-75
2021/11/09 10:40:08;;;;;;;14.85;5.88;;;10.30;81.40;;;;;;5098597;28;20031;-75
2021/11/09 10:42:40;;;;;;;17.73;6.13;;;10.40;81.30;;;;;;5098459;28;20100;-75
2021/11/09 10:45:12;;;;;;;14.40;5.75;;;10.40;81.20;;;;;;5098400;28;20035;-75
2021/11/09 10:47:46;;;;;;;15.57;5.25;;;10.40;81.10;;;;;;5116837;28;20054;-75
2021/11/09 10:50:23;;;;;;;17.42;5.63;;;10.50;81.00;;;;;;5098323;28;20418;-75
2021/11/09 10:52:58;;;;;;;15.25;5.95;;;10.50;80.80;;;;;;5098763;28;20027;-75
2021/11/09 10:55:40;;;;;;;14.20;6.03;;;10.60;80.70;;;;;;5098440;28;20055;-76
2021/11/09 11:03:29;;;;;;;15.77;6.20;;;10.70;80.30;;;;;;5116463;28;20059;-75
2021/11/09 11:06:17;;;;;;;16.73;5.90;;;10.80;80.20;;;;;;5097952;28;20031;-75
2021/11/09 11:08:44;;;;;;;15.13;6.65;;;10.80;80.00;;;;;;5097903;28;20076;-75
2021/11/09 11:11:27;;;;;;;18.40;6.25;;;10.90;80.00;;;;;;5098087;28;20024;-75
2021/11/09 11:13:55;;;;;;;12.47;5.50;;;10.90;79.70;;;;;;5116054;28;20028;-75
2021/11/09 11:16:26;;;;;;;16.80;5.72;;;11.00;79.70;;;;;;5113269;28;20892;-75
2021/11/09 11:18:54;;;;;;;13.73;5.90;;;11.00;79.50;;;;;;5097694;28;20024;-78
2021/11/09 11:21:23;;;;;;;16.63;6.00;;;11.00;79.20;;;;;;5116038;28;20023;-76
2021/11/09 11:24:44;;;;;;;14.95;5.00;;;11.10;79.30;;;;;;5097605;28;20023;-78
2021/11/09 11:27:13;;;;;;;17.50;6.10;;;11.10;79.00;;;;;;5115356;28;20059;-76
2021/11/09 11:29:40;;;;;;;13.30;5.57;;;11.10;78.80;;;;;;5097395;28;20479;-77
2021/11/09 11:32:08;;;;;;;14.98;5.70;;;11.20;78.80;;;;;;5097433;28;20024;-76
2021/11/09 11:34:33;;;;;;;13.63;5.72;;;11.20;78.80;;;;;;5115590;28;20031;-77
2021/11/09 11:37:00;;;;;;;15.50;5.57;;;11.20;78.70;;;;;;5097452;28;20372;-77
2021/11/09 11:39:29;;;;;;;14.48;5.05;;;11.30;78.70;;;;;;5097298;28;20177;-77
2021/11/09 11:41:57;;;;;;;16.13;5.90;;;11.30;78.60;;;;;;5097256;28;20034;-76
2021/11/09 11:45:12;;;;;;;14.43;5.40;;;11.40;78.50;;;;;;5115525;28;20073;-76
2021/11/09 11:47:40;;;;;;;14.80;5.65;;;11.40;78.50;;;;;;5096929;28;20441;-77
2021/11/09 11:50:11;;;;;;;16.02;5.63;;;11.50;78.40;;;;;;5097186;28;20031;-77
2021/11/09 11:56:32;;;;;;;13.90;5.72;;;11.50;78.00;;;;;;5072899;28;20126;-76
2021/11/09 11:58:57;;;;;;;16.00;5.15;;;11.50;77.70;;;;;;5072536;28;20067;-77
2021/11/09 12:01:38;;;;;;;17.40;5.78;;;11.50;77.80;;;;;;5069773;28;20044;-76
2021/11/09 12:04:08;;;;;;;15.77;5.40;;;11.60;77.60;;;;;;5055522;28;20039;-77
2021/11/09 12:10:05;;;;;;;13.27;4.93;;;11.70;77.40;;;;;;5072333;28;20039;-76
2021/11/09 12:12:33;;;;;;;15.18;5.25;;;11.70;77.20;;;;;;5072390;28;20123;-77
2021/11/09 12:15:03;;;;;;;12.18;5.43;;;11.80;77.00;;;;;;5055631;28;20127;-76
2021/11/09 12:17:31;;;;;;;14.80;5.07;;;11.80;76.90;;;;;;5038749;28;20070;-77
2021/11/09 12:19:58;;;;;;;12.50;5.43;;;11.80;76.80;;;;;;5055402;28;20123;-77
2021/11/09 12:22:38;;;;;;;14.02;5.05;;;11.90;76.80;;;;;;5055261;28;20032;-77
2021/11/09 12:25:05;;;;;;;11.68;4.20;;;11.90;76.60;;;;;;5055122;28;20036;-76
2021/11/09 12:27:49;;;;;;;11.57;5.03;;;12.00;76.60;;;;;;5111690;28;20456;-77
2021/11/09 12:30:36;;;;;;;12.10;5.18;;;12.00;76.50;;;;;;5096333;28;20035;-76
2021/11/09 12:33:22;;;;;;;16.70;5.63;;;12.10;76.40;;;;;;5096275;28;20027;-77
2021/11/09 12:36:11;;;;;;;12.48;5.30;;;12.10;76.10;;;;;;5114397;28;20023;-76
2021/11/09 12:38:45;;;;;;;12.65;5.13;;;12.10;75.80;;;;;;5113618;28;20051;-77
2021/11/09 12:41:22;;;;;;;14.65;5.18;;;12.10;75.80;;;;;;5096129;28;20076;-75
2021/11/09 12:47:11;;;;;;;15.73;5.13;;;12.30;75.90;;;;;;5114547;28;20027;-77
2021/11/09 12:49:39;;;;;;;11.70;5.10;;;12.30;75.50;;;;;;5096001;28;20025;-77
2021/11/09 12:52:05;;;;;;;14.10;5.00;;;12.40;75.50;;;;;;5095936;28;20391;-76
2021/11/09 12:54:33;;;;;;;14.25;4.90;;;12.40;75.40;;;;;;5095971;28;20031;-76
2021/11/09 12:57:06;;;;;;;11.80;4.80;;;12.40;75.40;;;;;;5114164;28;20047;-76
2021/11/09 12:59:42;;;;;;;13.75;5.03;;;12.50;75.40;;;;;;5114149;28;20027;-78
2021/11/09 13:02:26;;;;;;;17.25;5.22;;;12.50;76.00;;;;;;5113875;28;20610;-78
2021/11/09 13:05:09;;;;;;;14.50;4.95;;;12.50;75.20;;;;;;5095735;28;20047;-78
2021/11/09 13:07:40;;;;;;;12.35;5.30;;;12.60;75.30;;;;;;5113922;28;20383;-77
2021/11/09 13:10:13;;;;;;;15.55;5.57;;;12.60;75.00;;;;;;5095658;28;20516;-77
2021/11/09 13:12:40;;;;;;;13.85;5.30;;;12.60;74.80;;;;;;5113821;28;20028;-78
2021/11/09 13:15:12;;;;;;;12.00;5.57;;;12.60;74.80;;;;;;5095701;28;20024;-77
2021/11/09 13:17:44;;;;;;;17.65;5.25;;;12.70;74.80;;;;;;5095414;28;20031;-77
2021/11/09 13:20:20;;;;;;;13.75;5.20;;;12.70;74.70;;;;;;5095470;28;20026;-77
2021/11/09 13:23:16;;;;;;;11.63;4.20;;;12.70;74.60;;;;;;5113710;28;20055;-77
2021/11/09 13:25:49;;;;;;;11.55;4.82;;;12.80;74.50;;;;;;5095513;28;20034;-77
2021/11/09 13:28:15;;;;;;;12.13;5.30;;;12.80;74.30;;;;;;5095320;28;20165;-77
2021/11/09 13:30:47;;;;;;;16.38;6.13;;;12.70;73.90;;;;;;5095455;28;20114;-77
2021/11/09 13:33:13;;;;;;;13.88;5.10;;;12.70;74.40;;;;;;5095353;28;20026;-77
2021/11/09 13:35:43;;;;;;;18.23;5.43;;;12.70;73.90;;;;;;5095365;28;20505;-77
2021/11/09 13:38:13;;;;;;;13.82;4.90;;;12.70;74.10;;;;;;5095310;28;20118;-77
2021/11/09 13:40:41;;;;;;;10.20;4.55;;;12.70;73.40;;;;;;5095213;28;20034;-77
2021/11/09 13:43:10;;;;;;;14.65;5.13;;;12.70;74.10;;;;;;5095077;28;20081;-77
2021/11/09 13:45:38;;;;;;;14.05;4.78;;;12.80;73.40;;;;;;5095169;28;20036;-77
2021/11/09 13:48:16;;;;;;;13.20;5.22;;;12.80;73.40;;;;;;5095175;28;20052;-77
2021/11/09 13:50:43;;;;;;;14.63;4.70;;;12.90;73.10;;;;;;5096708;28;20028;-77
2021/11/09 13:53:09;;;;;;;16.60;4.70;;;12.90;73.20;;;;;;5117608;28;20030;-78
2021/11/09 13:55:38;;;;;;;11.27;4.88;;;12.90;73.20;;;;;;5099285;28;20490;-77
2021/11/09 13:58:04;;;;;;;11.70;4.75;;;12.90;73.20;;;;;;5099236;28;20055;-77
2021/11/09 14:00:41;;;;;;;11.20;4.72;;;12.80;73.30;;;;;;5117531;28;20027;-77
2021/11/09 14:16:39;;;;;;;;;;;12.80;73.30;;;;;;5117752;28;20042;-77
2021/11/09 14:19:10;;;;;;;9.70;4.15;;;12.90;73.30;;;;;;5098603;28;19918;-77
2021/11/09 14:21:42;;;;;;;11.07;3.75;;;12.90;73.20;;;;;;5098970;28;20103;-78
2021/11/09 14:24:28;;;;;;;16.05;4.43;;;12.90;73.00;;;;;;5098612;28;20034;-79
2021/11/09 14:27:27;;;;;;;14.05;4.32;;;12.80;72.70;;;;;;5098432;28;20189;-77
2021/11/09 14:29:59;;;;;;;13.55;4.15;;;12.70;72.80;;;;;;5014424;28;20567;-77
2021/11/09 14:32:27;;;;;;;10.18;4.07;;;12.70;73.10;;;;;;5038938;28;20043;-77
2021/11/09 14:35:25;;;;;;;12.77;4.32;;;12.60;73.10;;;;;;5078174;28;20499;-77
2021/11/09 14:38:02;;;;;;;11.07;3.83;;;12.60;73.10;;;;;;5078125;28;20055;-78
2021/11/09 14:40:56;;;;;;;10.45;4.03;;;12.60;73.10;;;;;;5094301;28;20032;-77
2021/11/09 14:43:26;;;;;;;9.70;3.60;;;12.50;73.10;;;;;;5078833;28;20024;-77
2021/11/09 14:49:22;;;;;;;11.00;3.70;;;12.60;73.00;;;;;;5096679;28;20451;-77
2021/11/09 14:51:51;;;;;;;11.07;3.75;;;12.50;73.10;;;;;;5094883;28;20503;-78
2021/11/09 14:54:23;;;;;;;12.75;3.85;;;12.50;73.10;;;;;;5096208;28;20032;-77
2021/11/09 14:56:48;;;;;;;17.08;4.47;;;12.50;73.10;;;;;;5095994;28;20024;-78
2021/11/09 14:59:16;;;;;;;9.30;4.30;;;12.50;73.00;;;;;;5095932;28;20445;-77
2021/11/09 15:01:59;;;;;;;13.55;4.93;;;12.60;73.10;;;;;;5076693;28;20047;-77
2021/11/09 15:04:45;;;;;;;10.10;4.15;;;12.60;73.00;;;;;;5095743;28;20032;-77
2021/11/09 15:07:23;;;;;;;12.75;4.45;;;12.60;73.10;;;;;;5095810;28;20369;-78
2021/11/09 15:29:49;;;;;;;11.80;4.15;;;12.40;73.20;;;;;;5114364;28;20086;-77
2021/11/09 15:32:25;;;;;;;13.77;4.07;;;12.30;73.20;;;;;;5115304;28;20109;-77
2021/11/09 15:35:06;;;;;;;13.75;4.38;;;12.30;73.30;;;;;;5097254;28;20047;-77
2021/11/09 15:37:35;;;;;;;12.60;5.43;;;12.30;73.30;;;;;;5097372;28;20024;-77
2021/11/09 15:40:02;;;;;;;14.00;5.75;;;12.30;73.40;;;;;;5115500;28;20019;-77
2021/11/09 15:42:29;;;;;;;15.43;5.35;;;12.30;73.40;;;;;;5097223;28;20088;-77
2021/11/09 15:44:55;;;;;;;17.05;5.50;;;12.20;73.50;;;;;;5115305;28;20072;-77
2021/11/09 15:47:22;;;;;;;14.98;5.13;;;12.20;73.50;;;;;;5097093;28;20020;-77
2021/11/09 15:49:48;;;;;;;15.52;4.38;;;12.20;73.50;;;;;;5096984;28;20069;-76
2021/11/09 15:52:13;;;;;;;15.23;4.72;;;12.10;73.60;;;;;;5096952;28;20463;-77
2021/11/09 15:54:39;;;;;;;13.30;4.55;;;12.10;73.70;;;;;;5096799;28;20024;-76
2021/11/09 15:57:06;;;;;;;12.35;4.32;;;12.00;73.70;;;;;;5115195;28;20068;-76
2021/11/09 15:59:31;;;;;;;12.55;4.45;;;12.00;73.80;;;;;;5115125;28;20020;-76
2021/11/09 16:02:00;;;;;;;13.60;4.47;;;12.00;73.90;;;;;;5115091;28;20463;-76
2021/11/09 16:04:36;;;;;;;11.60;3.83;;;11.90;74.00;;;;;;5114943;28;20027;-76
2021/11/09 16:07:02;;;;;;;9.63;3.90;;;11.90;74.10;;;;;;5115010;28;20020;-76
2021/11/09 16:09:28;;;;;;;14.05;4.20;;;11.80;74.20;;;;;;5096614;28;20016;-76
2021/11/09 16:11:55;;;;;;;11.68;4.05;;;11.80;74.90;;;;;;5114911;28;20511;-76
2021/11/09 16:14:21;;;;;;;9.25;4.30;;;11.70;74.30;;;;;;5114635;28;20054;-76
2021/11/09 16:16:47;;;;;;;10.27;4.38;;;11.70;74.40;;;;;;5114748;28;20055;-76
2021/11/09 16:19:12;;;;;;;15.75;4.70;;;11.60;74.50;;;;;;5096362;28;20501;-76
2021/11/09 16:21:38;;;;;;;14.90;5.38;;;11.60;74.80;;;;;;5096345;28;20451;-76
2021/11/09 16:24:04;;;;;;;12.77;5.88;;;11.50;74.70;;;;;;5114590;28;20058;-76
2021/11/09 16:26:31;;;;;;;19.77;6.32;;;11.50;74.80;;;;;;5096416;28;20050;-76
2021/11/09 16:28:57;;;;;;;15.70;6.40;;;11.40;74.80;;;;;;5114209;28;20036;-76
2021/11/09 16:31:22;;;;;;;15.45;5.20;;;11.40;74.90;;;;;;5114470;28;20030;-76
2021/11/09 16:33:53;;;;;;;15.68;4.90;;;11.40;75.10;;;;;;5114305;28;20020;-76
2021/11/09 16:36:20;;;;;;;16.35;4.53;;;11.30;75.10;;;;;;5114355;28;20020;-76
2021/11/09 16:38:59;;;;;;;14.07;4.80;;;11.30;75.30;;;;;;5114227;28;20028;-76
2021/11/09 16:41:28;;;;;;;12.13;4.07;;;11.20;75.30;;;;;;5095952;28;20031;-77
2021/11/09 16:43:59;;;;;;;10.02;4.10;;;11.20;75.50;;;;;;5113935;28;20023;-76
2021/11/09 16:51:57;;;;;;;12.63;4.57;;;11.10;75.90;;;;;;5114356;28;20054;-76
2021/11/09 16:54:40;;;;;;;13.35;4.10;;;11.00;76.00;;;;;;5095570;28;20015;-76